sensor_id;sensor_type;location;lat;lon;timestamp;P1;durP1;ratioP1;P2;durP2;ratioP2
57401;SDS011;43226;51.110;6.998;2022-07-23T00:00:23;40.27;;;21.33;;
57401;SDS011;43226;51.110;6.998;2022-07-23T00:02:48;29.00;;;18.73;;
57401;SDS011;43226;51.110;6.998;2022-07-23T00:05:14;39.47;;;23.00;;
57401;SDS011;43226;51.110;6.998;2022-07-23T00:07:39;36.83;;;20.50;;
57401;SDS011;43226;51.110;6.998;2022-07-23T00:10:05;30.50;;;20.83;;
57401;SDS011;43226;51.110;6.998;2022-07-23T00:12:30;33.37;;;20.83;;
57401;SDS011;43226;51.110;6.998;2022-07-23T00:14:55;38.40;;;21.10;;
57401;SDS011;43226;51.110;6.998;2022-07-23T00:17:21;33.03;;;19.40;;
57401;SDS011;43226;51.110;6.998;2022-07-23T00:19:46;36.37;;;21.87;;
57401;SDS011;43226;51.110;6.998;2022-07-23T00:22:11;34.83;;;21.10;;
57401;SDS011;43226;51.110;6.998;2022-07-23T00:24:36;30.33;;;22.50;;
57401;SDS011;43226;51.110;6.998;2022-07-23T00:27:02;37.07;;;22.40;;
57401;SDS011;43226;51.110;6.998;2022-07-23T00:29:27;34.37;;;21.83;;
57401;SDS011;43226;51.110;6.998;2022-07-23T00:31:52;38.63;;;22.37;;
57401;SDS011;43226;51.110;6.998;2022-07-23T00:34:17;37.63;;;22.33;;
57401;SDS011;43226;51.110;6.998;2022-07-23T00:36:42;40.90;;;23.50;;
57401;SDS011;43226;51.110;6.998;2022-07-23T00:39:08;34.67;;;22.80;;
57401;SDS011;43226;51.110;6.998;2022-07-23T00:41:33;34.87;;;20.77;;
57401;SDS011;43226;51.110;6.998;2022-07-23T00:46:56;36.53;;;20.53;;
57401;SDS011;43226;51.110;6.998;2022-07-23T00:49:23;32.60;;;20.03;;
57401;SDS011;43226;51.110;6.998;2022-07-23T00:51:49;36.50;;;20.07;;
57401;SDS011;43226;51.110;6.998;2022-07-23T00:54:14;34.97;;;20.87;;
57401;SDS011;43226;51.110;6.998;2022-07-23T00:56:40;35.10;;;20.37;;
57401;SDS011;43226;51.110;6.998;2022-07-23T00:59:06;30.83;;;21.17;;
57401;SDS011;43226;51.110;6.998;2022-07-23T01:01:32;33.30;;;20.90;;
57401;SDS011;43226;51.110;6.998;2022-07-23T01:03:57;38.07;;;22.60;;
57401;SDS011;43226;51.110;6.998;2022-07-23T01:06:22;39.57;;;24.20;;
57401;SDS011;43226;51.110;6.998;2022-07-23T01:08:48;33.50;;;21.90;;
57401;SDS011;43226;51.110;6.998;2022-07-23T01:11:13;37.60;;;22.40;;
57401;SDS011;43226;51.110;6.998;2022-07-23T01:13:45;35.93;;;23.53;;
57401;SDS011;43226;51.110;6.998;2022-07-23T01:16:10;37.83;;;20.70;;
57401;SDS011;43226;51.110;6.998;2022-07-23T01:18:35;37.63;;;21.80;;
57401;SDS011;43226;51.110;6.998;2022-07-23T01:21:01;29.93;;;19.00;;
57401;SDS011;43226;51.110;6.998;2022-07-23T01:23:26;31.23;;;21.03;;
57401;SDS011;43226;51.110;6.998;2022-07-23T01:25:52;33.50;;;20.93;;
57401;SDS011;43226;51.110;6.998;2022-07-23T01:28:17;32.40;;;20.10;;
57401;SDS011;43226;51.110;6.998;2022-07-23T01:30:42;33.23;;;19.00;;
57401;SDS011;43226;51.110;6.998;2022-07-23T01:33:07;31.50;;;18.17;;
57401;SDS011;43226;51.110;6.998;2022-07-23T01:35:33;30.17;;;17.70;;
57401;SDS011;43226;51.110;6.998;2022-07-23T01:37:58;24.80;;;17.27;;
57401;SDS011;43226;51.110;6.998;2022-07-23T01:40:23;30.63;;;17.30;;
57401;SDS011;43226;51.110;6.998;2022-07-23T01:42:48;28.07;;;19.07;;
57401;SDS011;43226;51.110;6.998;2022-07-23T01:45:13;25.77;;;17.47;;
57401;SDS011;43226;51.110;6.998;2022-07-23T01:47:39;30.10;;;18.30;;
57401;SDS011;43226;51.110;6.998;2022-07-23T01:50:04;29.63;;;17.10;;
57401;SDS011;43226;51.110;6.998;2022-07-23T01:52:29;34.60;;;18.70;;
57401;SDS011;43226;51.110;6.998;2022-07-23T01:54:54;28.40;;;18.40;;
57401;SDS011;43226;51.110;6.998;2022-07-23T01:57:20;30.67;;;18.03;;
57401;SDS011;43226;51.110;6.998;2022-07-23T01:59:45;28.67;;;17.30;;
57401;SDS011;43226;51.110;6.998;2022-07-23T02:02:10;32.10;;;17.70;;
57401;SDS011;43226;51.110;6.998;2022-07-23T02:04:35;30.70;;;19.17;;
57401;SDS011;43226;51.110;6.998;2022-07-23T02:07:01;33.17;;;19.40;;
57401;SDS011;43226;51.110;6.998;2022-07-23T02:09:27;24.77;;;16.73;;
57401;SDS011;43226;51.110;6.998;2022-07-23T02:11:52;29.87;;;18.53;;
57401;SDS011;43226;51.110;6.998;2022-07-23T02:14:17;30.00;;;18.77;;
57401;SDS011;43226;51.110;6.998;2022-07-23T02:16:42;29.33;;;18.13;;
57401;SDS011;43226;51.110;6.998;2022-07-23T02:19:07;26.80;;;16.83;;
57401;SDS011;43226;51.110;6.998;2022-07-23T02:21:33;25.60;;;15.43;;
57401;SDS011;43226;51.110;6.998;2022-07-23T02:23:58;29.77;;;18.00;;
57401;SDS011;43226;51.110;6.998;2022-07-23T02:26:23;28.50;;;17.43;;
57401;SDS011;43226;51.110;6.998;2022-07-23T02:28:48;32.83;;;20.40;;
57401;SDS011;43226;51.110;6.998;2022-07-23T02:31:13;29.80;;;18.07;;
57401;SDS011;43226;51.110;6.998;2022-07-23T02:33:39;27.13;;;18.57;;
57401;SDS011;43226;51.110;6.998;2022-07-23T02:36:04;27.23;;;18.53;;
57401;SDS011;43226;51.110;6.998;2022-07-23T02:38:29;36.10;;;20.00;;
57401;SDS011;43226;51.110;6.998;2022-07-23T02:40:55;28.53;;;17.07;;
57401;SDS011;43226;51.110;6.998;2022-07-23T02:43:20;27.30;;;17.60;;
57401;SDS011;43226;51.110;6.998;2022-07-23T02:45:45;24.47;;;17.10;;
57401;SDS011;43226;51.110;6.998;2022-07-23T02:48:10;27.83;;;17.03;;
57401;SDS011;43226;51.110;6.998;2022-07-23T02:50:37;30.20;;;18.20;;
57401;SDS011;43226;51.110;6.998;2022-07-23T02:53:02;35.07;;;18.67;;
57401;SDS011;43226;51.110;6.998;2022-07-23T02:55:28;32.47;;;19.17;;
57401;SDS011;43226;51.110;6.998;2022-07-23T02:57:53;32.70;;;19.07;;
57401;SDS011;43226;51.110;6.998;2022-07-23T03:00:18;27.63;;;18.00;;
57401;SDS011;43226;51.110;6.998;2022-07-23T03:02:43;26.40;;;17.30;;
57401;SDS011;43226;51.110;6.998;2022-07-23T03:05:09;28.80;;;17.53;;
57401;SDS011;43226;51.110;6.998;2022-07-23T03:07:34;30.13;;;17.13;;
57401;SDS011;43226;51.110;6.998;2022-07-23T03:09:59;30.80;;;16.63;;
57401;SDS011;43226;51.110;6.998;2022-07-23T03:12:24;27.43;;;17.23;;
57401;SDS011;43226;51.110;6.998;2022-07-23T03:14:49;27.80;;;17.87;;
57401;SDS011;43226;51.110;6.998;2022-07-23T03:17:15;25.40;;;16.57;;
57401;SDS011;43226;51.110;6.998;2022-07-23T03:19:40;28.07;;;16.97;;
57401;SDS011;43226;51.110;6.998;2022-07-23T03:22:06;30.53;;;17.27;;
57401;SDS011;43226;51.110;6.998;2022-07-23T03:24:31;31.70;;;17.53;;
57401;SDS011;43226;51.110;6.998;2022-07-23T03:27:15;29.83;;;17.70;;
57401;SDS011;43226;51.110;6.998;2022-07-23T03:29:40;32.40;;;17.67;;
57401;SDS011;43226;51.110;6.998;2022-07-23T03:32:05;25.03;;;16.30;;
57401;SDS011;43226;51.110;6.998;2022-07-23T03:34:30;26.00;;;15.53;;
57401;SDS011;43226;51.110;6.998;2022-07-23T03:36:55;29.93;;;17.17;;
57401;SDS011;43226;51.110;6.998;2022-07-23T03:39:21;30.13;;;18.80;;
57401;SDS011;43226;51.110;6.998;2022-07-23T03:41:46;29.97;;;17.17;;
57401;SDS011;43226;51.110;6.998;2022-07-23T03:44:11;29.13;;;17.37;;
57401;SDS011;43226;51.110;6.998;2022-07-23T03:46:36;28.10;;;17.60;;
57401;SDS011;43226;51.110;6.998;2022-07-23T03:49:01;28.83;;;18.07;;
57401;SDS011;43226;51.110;6.998;2022-07-23T03:51:27;23.80;;;15.50;;
57401;SDS011;43226;51.110;6.998;2022-07-23T03:53:52;28.27;;;17.47;;
57401;SDS011;43226;51.110;6.998;2022-07-23T03:56:17;32.10;;;18.00;;
57401;SDS011;43226;51.110;6.998;2022-07-23T03:58:42;29.23;;;18.13;;
57401;SDS011;43226;51.110;6.998;2022-07-23T04:01:07;32.83;;;18.40;;
57401;SDS011;43226;51.110;6.998;2022-07-23T04:03:33;27.87;;;16.87;;
57401;SDS011;43226;51.110;6.998;2022-07-23T04:05:58;25.87;;;15.67;;
57401;SDS011;43226;51.110;6.998;2022-07-23T04:08:23;27.00;;;17.27;;
57401;SDS011;43226;51.110;6.998;2022-07-23T04:10:49;27.70;;;16.67;;
57401;SDS011;43226;51.110;6.998;2022-07-23T04:13:14;27.80;;;17.43;;
57401;SDS011;43226;51.110;6.998;2022-07-23T04:15:39;24.33;;;15.67;;
57401;SDS011;43226;51.110;6.998;2022-07-23T04:18:04;28.53;;;16.03;;
57401;SDS011;43226;51.110;6.998;2022-07-23T04:20:29;22.23;;;13.87;;
57401;SDS011;43226;51.110;6.998;2022-07-23T04:22:55;21.13;;;14.80;;
57401;SDS011;43226;51.110;6.998;2022-07-23T04:25:20;21.80;;;12.63;;
57401;SDS011;43226;51.110;6.998;2022-07-23T04:27:45;20.30;;;11.70;;
57401;SDS011;43226;51.110;6.998;2022-07-23T04:30:10;16.30;;;12.00;;
57401;SDS011;43226;51.110;6.998;2022-07-23T04:32:36;15.80;;;10.67;;
57401;SDS011;43226;51.110;6.998;2022-07-23T04:35:01;23.73;;;13.70;;
57401;SDS011;43226;51.110;6.998;2022-07-23T04:37:27;18.80;;;12.60;;
57401;SDS011;43226;51.110;6.998;2022-07-23T04:39:52;16.93;;;12.23;;
57401;SDS011;43226;51.110;6.998;2022-07-23T04:42:17;20.20;;;11.73;;
57401;SDS011;43226;51.110;6.998;2022-07-23T04:44:42;20.93;;;13.17;;
57401;SDS011;43226;51.110;6.998;2022-07-23T04:47:08;18.70;;;13.07;;
57401;SDS011;43226;51.110;6.998;2022-07-23T04:49:33;19.57;;;13.07;;
57401;SDS011;43226;51.110;6.998;2022-07-23T04:51:58;18.07;;;11.33;;
57401;SDS011;43226;51.110;6.998;2022-07-23T04:54:23;18.77;;;12.67;;
57401;SDS011;43226;51.110;6.998;2022-07-23T04:56:48;17.50;;;12.67;;
57401;SDS011;43226;51.110;6.998;2022-07-23T04:59:14;17.47;;;12.20;;
57401;SDS011;43226;51.110;6.998;2022-07-23T05:01:39;16.57;;;12.43;;
57401;SDS011;43226;51.110;6.998;2022-07-23T05:04:04;14.97;;;10.43;;
57401;SDS011;43226;51.110;6.998;2022-07-23T05:06:29;18.73;;;12.30;;
57401;SDS011;43226;51.110;6.998;2022-07-23T05:08:54;17.90;;;11.07;;
57401;SDS011;43226;51.110;6.998;2022-07-23T05:11:20;17.17;;;11.80;;
57401;SDS011;43226;51.110;6.998;2022-07-23T05:13:45;14.57;;;10.60;;
57401;SDS011;43226;51.110;6.998;2022-07-23T05:16:10;13.90;;;10.10;;
57401;SDS011;43226;51.110;6.998;2022-07-23T05:18:35;16.17;;;11.03;;
57401;SDS011;43226;51.110;6.998;2022-07-23T05:21:01;16.43;;;11.33;;
57401;SDS011;43226;51.110;6.998;2022-07-23T05:23:26;12.60;;;10.80;;
57401;SDS011;43226;51.110;6.998;2022-07-23T05:25:51;13.50;;;10.33;;
57401;SDS011;43226;51.110;6.998;2022-07-23T05:28:16;16.50;;;11.50;;
57401;SDS011;43226;51.110;6.998;2022-07-23T05:30:41;15.30;;;11.30;;
57401;SDS011;43226;51.110;6.998;2022-07-23T05:33:07;13.93;;;11.23;;
57401;SDS011;43226;51.110;6.998;2022-07-23T05:35:33;13.83;;;10.70;;
57401;SDS011;43226;51.110;6.998;2022-07-23T05:37:58;16.50;;;11.27;;
57401;SDS011;43226;51.110;6.998;2022-07-23T05:40:23;17.63;;;9.90;;
57401;SDS011;43226;51.110;6.998;2022-07-23T05:42:48;13.20;;;10.63;;
57401;SDS011;43226;51.110;6.998;2022-07-23T05:45:14;13.70;;;10.80;;
57401;SDS011;43226;51.110;6.998;2022-07-23T05:47:43;17.87;;;11.20;;
57401;SDS011;43226;51.110;6.998;2022-07-23T05:50:09;14.00;;;10.77;;
57401;SDS011;43226;51.110;6.998;2022-07-23T05:52:34;16.40;;;10.80;;
57401;SDS011;43226;51.110;6.998;2022-07-23T05:54:59;15.50;;;10.40;;
57401;SDS011;43226;51.110;6.998;2022-07-23T05:57:24;16.70;;;10.30;;
57401;SDS011;43226;51.110;6.998;2022-07-23T05:59:49;15.83;;;10.57;;
57401;SDS011;43226;51.110;6.998;2022-07-23T06:02:15;14.10;;;10.67;;
57401;SDS011;43226;51.110;6.998;2022-07-23T06:04:40;16.30;;;12.07;;
57401;SDS011;43226;51.110;6.998;2022-07-23T06:07:05;14.60;;;11.00;;
57401;SDS011;43226;51.110;6.998;2022-07-23T06:09:30;13.73;;;10.30;;
57401;SDS011;43226;51.110;6.998;2022-07-23T06:11:55;14.43;;;10.37;;
57401;SDS011;43226;51.110;6.998;2022-07-23T06:14:21;13.50;;;11.10;;
57401;SDS011;43226;51.110;6.998;2022-07-23T06:16:46;11.97;;;9.47;;
57401;SDS011;43226;51.110;6.998;2022-07-23T06:19:11;11.10;;;8.57;;
57401;SDS011;43226;51.110;6.998;2022-07-23T06:21:36;15.67;;;9.43;;
57401;SDS011;43226;51.110;6.998;2022-07-23T06:24:01;12.30;;;8.83;;
57401;SDS011;43226;51.110;6.998;2022-07-23T06:26:27;12.00;;;9.90;;
57401;SDS011;43226;51.110;6.998;2022-07-23T06:28:52;16.33;;;10.50;;
57401;SDS011;43226;51.110;6.998;2022-07-23T06:31:17;13.90;;;8.77;;
57401;SDS011;43226;51.110;6.998;2022-07-23T06:33:43;14.17;;;10.00;;
57401;SDS011;43226;51.110;6.998;2022-07-23T06:36:08;12.93;;;9.70;;
57401;SDS011;43226;51.110;6.998;2022-07-23T06:38:34;18.80;;;9.67;;
57401;SDS011;43226;51.110;6.998;2022-07-23T06:41:00;15.90;;;9.00;;
57401;SDS011;43226;51.110;6.998;2022-07-23T06:43:25;17.63;;;9.90;;
57401;SDS011;43226;51.110;6.998;2022-07-23T06:45:50;14.37;;;10.00;;
57401;SDS011;43226;51.110;6.998;2022-07-23T06:48:15;17.67;;;10.80;;
57401;SDS011;43226;51.110;6.998;2022-07-23T06:50:40;14.65;;;10.48;;
57401;SDS011;43226;51.110;6.998;2022-07-23T06:53:05;13.70;;;9.70;;
57401;SDS011;43226;51.110;6.998;2022-07-23T06:55:31;15.30;;;10.50;;
57401;SDS011;43226;51.110;6.998;2022-07-23T06:57:56;13.40;;;9.70;;
57401;SDS011;43226;51.110;6.998;2022-07-23T07:00:21;13.33;;;9.83;;
57401;SDS011;43226;51.110;6.998;2022-07-23T07:02:46;13.50;;;9.70;;
57401;SDS011;43226;51.110;6.998;2022-07-23T07:05:12;10.30;;;8.83;;
57401;SDS011;43226;51.110;6.998;2022-07-23T07:07:37;13.97;;;8.90;;
57401;SDS011;43226;51.110;6.998;2022-07-23T07:10:02;12.03;;;8.40;;
57401;SDS011;43226;51.110;6.998;2022-07-23T07:12:28;13.87;;;9.00;;
57401;SDS011;43226;51.110;6.998;2022-07-23T07:14:53;13.70;;;8.00;;
57401;SDS011;43226;51.110;6.998;2022-07-23T07:17:18;14.47;;;8.13;;
57401;SDS011;43226;51.110;6.998;2022-07-23T07:19:43;10.10;;;8.27;;
57401;SDS011;43226;51.110;6.998;2022-07-23T07:22:09;8.57;;;7.17;;
57401;SDS011;43226;51.110;6.998;2022-07-23T07:24:34;13.73;;;8.43;;
57401;SDS011;43226;51.110;6.998;2022-07-23T07:26:59;11.50;;;8.70;;
57401;SDS011;43226;51.110;6.998;2022-07-23T07:29:24;11.77;;;8.37;;
57401;SDS011;43226;51.110;6.998;2022-07-23T07:31:49;12.17;;;8.80;;
57401;SDS011;43226;51.110;6.998;2022-07-23T07:34:15;13.97;;;8.60;;
57401;SDS011;43226;51.110;6.998;2022-07-23T07:36:40;15.70;;;9.13;;
57401;SDS011;43226;51.110;6.998;2022-07-23T07:39:05;11.20;;;7.70;;
57401;SDS011;43226;51.110;6.998;2022-07-23T07:41:31;10.00;;;8.27;;
57401;SDS011;43226;51.110;6.998;2022-07-23T07:43:57;11.73;;;8.40;;
57401;SDS011;43226;51.110;6.998;2022-07-23T07:46:22;9.67;;;7.40;;
57401;SDS011;43226;51.110;6.998;2022-07-23T07:48:49;13.40;;;8.10;;
57401;SDS011;43226;51.110;6.998;2022-07-23T07:51:14;14.80;;;8.80;;
57401;SDS011;43226;51.110;6.998;2022-07-23T07:53:39;11.10;;;8.60;;
57401;SDS011;43226;51.110;6.998;2022-07-23T07:56:04;11.63;;;7.70;;
57401;SDS011;43226;51.110;6.998;2022-07-23T07:58:30;11.60;;;8.60;;
57401;SDS011;43226;51.110;6.998;2022-07-23T08:00:55;12.60;;;8.50;;
57401;SDS011;43226;51.110;6.998;2022-07-23T08:03:20;10.03;;;7.80;;
57401;SDS011;43226;51.110;6.998;2022-07-23T08:05:45;15.17;;;8.63;;
57401;SDS011;43226;51.110;6.998;2022-07-23T08:08:10;14.87;;;8.73;;
57401;SDS011;43226;51.110;6.998;2022-07-23T08:10:39;10.00;;;8.43;;
57401;SDS011;43226;51.110;6.998;2022-07-23T08:13:05;12.00;;;9.40;;
57401;SDS011;43226;51.110;6.998;2022-07-23T08:15:30;9.00;;;7.80;;
57401;SDS011;43226;51.110;6.998;2022-07-23T08:17:56;15.50;;;7.40;;
57401;SDS011;43226;51.110;6.998;2022-07-23T08:20:22;9.90;;;7.60;;
57401;SDS011;43226;51.110;6.998;2022-07-23T08:25:13;14.07;;;8.20;;
57401;SDS011;43226;51.110;6.998;2022-07-23T08:27:38;9.00;;;8.10;;
57401;SDS011;43226;51.110;6.998;2022-07-23T08:30:04;13.40;;;7.40;;
57401;SDS011;43226;51.110;6.998;2022-07-23T08:32:29;10.57;;;7.40;;
57401;SDS011;43226;51.110;6.998;2022-07-23T08:34:54;11.90;;;7.20;;
57401;SDS011;43226;51.110;6.998;2022-07-23T08:37:19;8.60;;;6.60;;
57401;SDS011;43226;51.110;6.998;2022-07-23T08:39:45;7.60;;;6.23;;
57401;SDS011;43226;51.110;6.998;2022-07-23T08:42:11;13.27;;;7.00;;
57401;SDS011;43226;51.110;6.998;2022-07-23T08:44:37;10.30;;;6.93;;
57401;SDS011;43226;51.110;6.998;2022-07-23T08:47:04;9.60;;;6.97;;
57401;SDS011;43226;51.110;6.998;2022-07-23T08:49:30;12.50;;;7.53;;
57401;SDS011;43226;51.110;6.998;2022-07-23T08:51:55;13.20;;;7.37;;
57401;SDS011;43226;51.110;6.998;2022-07-23T08:54:21;11.30;;;8.60;;
57401;SDS011;43226;51.110;6.998;2022-07-23T08:56:47;9.73;;;7.60;;
57401;SDS011;43226;51.110;6.998;2022-07-23T08:59:12;9.53;;;8.40;;
57401;SDS011;43226;51.110;6.998;2022-07-23T09:01:38;11.13;;;8.57;;
57401;SDS011;43226;51.110;6.998;2022-07-23T09:04:04;12.03;;;7.60;;
57401;SDS011;43226;51.110;6.998;2022-07-23T09:06:29;10.30;;;7.93;;
57401;SDS011;43226;51.110;6.998;2022-07-23T09:08:54;12.97;;;7.87;;
57401;SDS011;43226;51.110;6.998;2022-07-23T09:11:19;11.43;;;7.93;;
57401;SDS011;43226;51.110;6.998;2022-07-23T09:13:48;11.53;;;8.30;;
57401;SDS011;43226;51.110;6.998;2022-07-23T09:21:18;11.30;;;9.43;;
57401;SDS011;43226;51.110;6.998;2022-07-23T09:23:45;9.60;;;8.50;;
57401;SDS011;43226;51.110;6.998;2022-07-23T09:27:11;8.30;;;7.50;;
57401;SDS011;43226;51.110;6.998;2022-07-23T09:31:34;10.10;;;8.27;;
57401;SDS011;43226;51.110;6.998;2022-07-23T09:34:12;9.57;;;8.13;;
57401;SDS011;43226;51.110;6.998;2022-07-23T09:36:37;9.93;;;8.53;;
57401;SDS011;43226;51.110;6.998;2022-07-23T09:39:03;10.23;;;9.00;;
57401;SDS011;43226;51.110;6.998;2022-07-23T09:41:39;8.90;;;8.00;;
57401;SDS011;43226;51.110;6.998;2022-07-23T09:44:11;10.60;;;9.03;;
57401;SDS011;43226;51.110;6.998;2022-07-23T09:46:37;13.30;;;9.33;;
57401;SDS011;43226;51.110;6.998;2022-07-23T09:49:10;11.37;;;10.20;;
57401;SDS011;43226;51.110;6.998;2022-07-23T09:51:43;9.87;;;7.87;;
57401;SDS011;43226;51.110;6.998;2022-07-23T09:54:08;9.77;;;8.80;;
57401;SDS011;43226;51.110;6.998;2022-07-23T09:56:44;8.90;;;7.70;;
57401;SDS011;43226;51.110;6.998;2022-07-23T09:59:10;9.93;;;8.93;;
57401;SDS011;43226;51.110;6.998;2022-07-23T10:01:36;8.50;;;7.70;;
57401;SDS011;43226;51.110;6.998;2022-07-23T10:04:02;9.30;;;8.40;;
57401;SDS011;43226;51.110;6.998;2022-07-23T10:06:27;10.13;;;8.50;;
57401;SDS011;43226;51.110;6.998;2022-07-23T10:08:53;8.43;;;7.63;;
57401;SDS011;43226;51.110;6.998;2022-07-23T10:11:22;8.80;;;7.70;;
57401;SDS011;43226;51.110;6.998;2022-07-23T10:13:48;8.30;;;6.53;;
57401;SDS011;43226;51.110;6.998;2022-07-23T10:16:20;10.77;;;6.67;;
57401;SDS011;43226;51.110;6.998;2022-07-23T10:18:48;8.23;;;7.40;;
57401;SDS011;43226;51.110;6.998;2022-07-23T10:21:16;8.93;;;7.50;;
57401;SDS011;43226;51.110;6.998;2022-07-23T10:23:45;10.30;;;7.87;;
57401;SDS011;43226;51.110;6.998;2022-07-23T10:29:08;7.40;;;6.70;;
57401;SDS011;43226;51.110;6.998;2022-07-23T10:31:47;11.37;;;8.30;;
57401;SDS011;43226;51.110;6.998;2022-07-23T10:34:25;10.13;;;7.27;;
57401;SDS011;43226;51.110;6.998;2022-07-23T10:39:41;8.40;;;7.23;;
57401;SDS011;43226;51.110;6.998;2022-07-23T10:42:07;7.43;;;6.70;;
57401;SDS011;43226;51.110;6.998;2022-07-23T10:44:37;9.97;;;7.07;;
57401;SDS011;43226;51.110;6.998;2022-07-23T10:47:03;9.03;;;8.17;;
57401;SDS011;43226;51.110;6.998;2022-07-23T10:49:38;8.23;;;7.23;;
57401;SDS011;43226;51.110;6.998;2022-07-23T10:54:39;9.50;;;8.60;;
57401;SDS011;43226;51.110;6.998;2022-07-23T10:57:05;9.63;;;7.10;;
57401;SDS011;43226;51.110;6.998;2022-07-23T10:59:31;10.77;;;6.90;;
57401;SDS011;43226;51.110;6.998;2022-07-23T11:02:39;8.03;;;7.23;;
57401;SDS011;43226;51.110;6.998;2022-07-23T11:04:49;8.30;;;7.17;;
57401;SDS011;43226;51.110;6.998;2022-07-23T11:07:15;8.47;;;6.40;;
57401;SDS011;43226;51.110;6.998;2022-07-23T11:09:41;8.17;;;7.37;;
57401;SDS011;43226;51.110;6.998;2022-07-23T11:12:31;11.90;;;7.10;;
57401;SDS011;43226;51.110;6.998;2022-07-23T11:17:24;8.77;;;6.90;;
57401;SDS011;43226;51.110;6.998;2022-07-23T11:22:36;13.20;;;7.60;;
57401;SDS011;43226;51.110;6.998;2022-07-23T11:25:01;8.43;;;7.13;;
57401;SDS011;43226;51.110;6.998;2022-07-23T11:27:39;10.20;;;6.83;;
57401;SDS011;43226;51.110;6.998;2022-07-23T11:30:05;8.20;;;7.40;;
57401;SDS011;43226;51.110;6.998;2022-07-23T11:32:32;10.37;;;7.70;;
57401;SDS011;43226;51.110;6.998;2022-07-23T11:34:59;8.07;;;7.27;;
57401;SDS011;43226;51.110;6.998;2022-07-23T11:37:32;7.33;;;6.63;;
57401;SDS011;43226;51.110;6.998;2022-07-23T11:40:02;18.30;;;7.43;;
57401;SDS011;43226;51.110;6.998;2022-07-23T11:42:28;12.20;;;8.90;;
57401;SDS011;43226;51.110;6.998;2022-07-23T11:44:53;8.87;;;6.70;;
57401;SDS011;43226;51.110;6.998;2022-07-23T11:47:22;11.03;;;7.63;;
57401;SDS011;43226;51.110;6.998;2022-07-23T11:49:58;9.37;;;8.47;;
57401;SDS011;43226;51.110;6.998;2022-07-23T11:52:23;7.30;;;6.37;;
57401;SDS011;43226;51.110;6.998;2022-07-23T11:54:50;12.63;;;6.50;;
57401;SDS011;43226;51.110;6.998;2022-07-23T11:57:16;9.50;;;7.67;;
57401;SDS011;43226;51.110;6.998;2022-07-23T11:59:41;14.13;;;7.83;;
57401;SDS011;43226;51.110;6.998;2022-07-23T12:02:07;8.37;;;6.47;;
57401;SDS011;43226;51.110;6.998;2022-07-23T12:04:39;7.77;;;6.97;;
57401;SDS011;43226;51.110;6.998;2022-07-23T12:07:04;8.70;;;7.90;;
57401;SDS011;43226;51.110;6.998;2022-07-23T12:09:30;8.70;;;6.73;;
57401;SDS011;43226;51.110;6.998;2022-07-23T12:11:59;7.60;;;6.33;;
57401;SDS011;43226;51.110;6.998;2022-07-23T12:14:24;11.07;;;6.60;;
57401;SDS011;43226;51.110;6.998;2022-07-23T12:17:08;11.70;;;7.73;;
57401;SDS011;43226;51.110;6.998;2022-07-23T12:19:33;8.30;;;6.50;;
57401;SDS011;43226;51.110;6.998;2022-07-23T12:21:59;7.00;;;6.30;;
57401;SDS011;43226;51.110;6.998;2022-07-23T12:24:24;6.67;;;5.80;;
57401;SDS011;43226;51.110;6.998;2022-07-23T12:27:08;8.33;;;6.67;;
57401;SDS011;43226;51.110;6.998;2022-07-23T12:29:36;10.90;;;7.13;;
57401;SDS011;43226;51.110;6.998;2022-07-23T12:32:02;6.83;;;5.73;;
57401;SDS011;43226;51.110;6.998;2022-07-23T12:34:27;8.70;;;6.87;;
57401;SDS011;43226;51.110;6.998;2022-07-23T12:36:53;8.63;;;5.80;;
57401;SDS011;43226;51.110;6.998;2022-07-23T12:39:30;9.10;;;6.60;;
57401;SDS011;43226;51.110;6.998;2022-07-23T12:41:56;6.57;;;5.73;;
57401;SDS011;43226;51.110;6.998;2022-07-23T12:44:21;9.30;;;5.37;;
57401;SDS011;43226;51.110;6.998;2022-07-23T12:46:49;5.37;;;4.87;;
57401;SDS011;43226;51.110;6.998;2022-07-23T12:49:24;7.27;;;5.90;;
57401;SDS011;43226;51.110;6.998;2022-07-23T12:51:50;7.50;;;5.83;;
57401;SDS011;43226;51.110;6.998;2022-07-23T12:54:15;5.27;;;4.83;;
57401;SDS011;43226;51.110;6.998;2022-07-23T12:56:40;35.10;;;15.20;;
57401;SDS011;43226;51.110;6.998;2022-07-23T12:59:10;13.00;;;9.20;;
57401;SDS011;43226;51.110;6.998;2022-07-23T13:01:36;12.60;;;7.23;;
57401;SDS011;43226;51.110;6.998;2022-07-23T13:04:15;7.20;;;5.57;;
57401;SDS011;43226;51.110;6.998;2022-07-23T13:07:01;9.87;;;6.70;;
57401;SDS011;43226;51.110;6.998;2022-07-23T13:09:29;7.20;;;4.70;;
57401;SDS011;43226;51.110;6.998;2022-07-23T13:11:55;7.67;;;5.07;;
57401;SDS011;43226;51.110;6.998;2022-07-23T13:14:21;5.67;;;4.00;;
57401;SDS011;43226;51.110;6.998;2022-07-23T13:16:46;6.07;;;4.60;;
57401;SDS011;43226;51.110;6.998;2022-07-23T13:19:12;5.20;;;4.70;;
57401;SDS011;43226;51.110;6.998;2022-07-23T13:21:37;5.87;;;4.40;;
57401;SDS011;43226;51.110;6.998;2022-07-23T13:24:02;11.63;;;4.63;;
57401;SDS011;43226;51.110;6.998;2022-07-23T13:26:28;6.80;;;4.93;;
57401;SDS011;43226;51.110;6.998;2022-07-23T13:28:53;8.20;;;4.47;;
57401;SDS011;43226;51.110;6.998;2022-07-23T13:31:18;5.43;;;4.00;;
57401;SDS011;43226;51.110;6.998;2022-07-23T13:33:44;7.67;;;4.40;;
57401;SDS011;43226;51.110;6.998;2022-07-23T13:36:09;4.80;;;3.77;;
57401;SDS011;43226;51.110;6.998;2022-07-23T13:38:34;7.27;;;4.53;;
57401;SDS011;43226;51.110;6.998;2022-07-23T13:41:00;5.50;;;4.20;;
57401;SDS011;43226;51.110;6.998;2022-07-23T13:43:29;7.33;;;4.67;;
57401;SDS011;43226;51.110;6.998;2022-07-23T13:45:54;7.67;;;5.83;;
57401;SDS011;43226;51.110;6.998;2022-07-23T13:48:20;16.63;;;14.57;;
57401;SDS011;43226;51.110;6.998;2022-07-23T13:50:46;6.23;;;4.00;;
57401;SDS011;43226;51.110;6.998;2022-07-23T13:53:13;5.43;;;3.90;;
57401;SDS011;43226;51.110;6.998;2022-07-23T13:55:38;5.13;;;3.77;;
57401;SDS011;43226;51.110;6.998;2022-07-23T13:58:04;5.67;;;4.20;;
57401;SDS011;43226;51.110;6.998;2022-07-23T14:00:30;5.27;;;3.70;;
57401;SDS011;43226;51.110;6.998;2022-07-23T14:02:56;5.97;;;4.10;;
57401;SDS011;43226;51.110;6.998;2022-07-23T14:05:21;7.00;;;3.60;;
57401;SDS011;43226;51.110;6.998;2022-07-23T14:07:46;3.70;;;3.20;;
57401;SDS011;43226;51.110;6.998;2022-07-23T14:10:14;8.10;;;3.50;;
57401;SDS011;43226;51.110;6.998;2022-07-23T14:12:40;4.43;;;3.80;;
57401;SDS011;43226;51.110;6.998;2022-07-23T14:15:05;4.83;;;3.63;;
57401;SDS011;43226;51.110;6.998;2022-07-23T14:17:31;7.57;;;4.47;;
57401;SDS011;43226;51.110;6.998;2022-07-23T14:19:57;5.13;;;4.20;;
57401;SDS011;43226;51.110;6.998;2022-07-23T14:22:23;10.30;;;4.13;;
57401;SDS011;43226;51.110;6.998;2022-07-23T14:24:48;5.53;;;3.93;;
57401;SDS011;43226;51.110;6.998;2022-07-23T14:27:13;7.53;;;3.93;;
57401;SDS011;43226;51.110;6.998;2022-07-23T14:29:38;5.00;;;4.20;;
57401;SDS011;43226;51.110;6.998;2022-07-23T14:32:04;6.60;;;3.97;;
57401;SDS011;43226;51.110;6.998;2022-07-23T14:34:29;5.53;;;3.70;;
57401;SDS011;43226;51.110;6.998;2022-07-23T14:36:54;8.10;;;4.20;;
57401;SDS011;43226;51.110;6.998;2022-07-23T14:39:20;6.20;;;3.90;;
57401;SDS011;43226;51.110;6.998;2022-07-23T14:41:45;7.27;;;4.27;;
57401;SDS011;43226;51.110;6.998;2022-07-23T14:44:10;7.20;;;4.87;;
57401;SDS011;43226;51.110;6.998;2022-07-23T14:46:36;5.50;;;4.17;;
57401;SDS011;43226;51.110;6.998;2022-07-23T14:49:01;4.80;;;4.03;;
57401;SDS011;43226;51.110;6.998;2022-07-23T14:51:27;7.20;;;4.03;;
57401;SDS011;43226;51.110;6.998;2022-07-23T14:53:52;4.43;;;4.03;;